createdAt,value
2022-10-17T00:00:29.555Z,11.95
2022-10-17T00:01:31.430Z,7.61
2022-10-17T00:02:33.221Z,8.99
2022-10-17T00:03:35.028Z,10.85
2022-10-17T00:04:36.917Z,9.51
2022-10-17T00:05:38.731Z,9.87
2022-10-17T00:06:40.578Z,9.79
2022-10-17T00:07:42.416Z,8.99
2022-10-17T00:08:44.251Z,7.85
2022-10-17T00:09:46.097Z,9.61
2022-10-17T00:10:47.923Z,10.05
2022-10-17T00:11:49.732Z,10.80
2022-10-17T00:12:51.587Z,9.09
2022-10-17T00:13:53.418Z,8.87
2022-10-17T00:14:55.267Z,10.77
2022-10-17T00:15:57.100Z,8.37
2022-10-17T00:16:58.917Z,6.51
2022-10-17T00:18:00.738Z,8.21
2022-10-17T00:19:03.182Z,8.24
2022-10-17T00:20:05.483Z,8.47
2022-10-17T00:21:07.314Z,11.95
2022-10-17T00:22:09.134Z,7.07
2022-10-17T00:23:10.960Z,9.44
2022-10-17T00:24:12.774Z,10.41
2022-10-17T00:25:14.644Z,8.01
2022-10-17T00:26:16.460Z,9.13
2022-10-17T00:27:18.194Z,7.93
2022-10-17T00:28:20.035Z,6.71
2022-10-17T00:29:21.857Z,8.13
2022-10-17T00:30:23.714Z,9.45
2022-10-17T00:31:25.441Z,8.89
2022-10-17T00:32:27.439Z,8.93
2022-10-17T00:33:29.598Z,8.30
2022-10-17T00:34:31.428Z,7.94
2022-10-17T00:35:33.348Z,7.96
2022-10-17T00:36:35.180Z,7.97
2022-10-17T00:37:37.002Z,12.59
2022-10-17T00:38:38.830Z,8.43
2022-10-17T00:39:40.645Z,8.23
2022-10-17T00:40:42.555Z,9.10
2022-10-17T00:41:44.422Z,10.25
2022-10-17T00:42:46.254Z,9.34
2022-10-17T00:43:47.982Z,8.61
2022-10-17T00:44:49.802Z,9.61
2022-10-17T00:45:51.559Z,7.83
2022-10-17T00:46:53.381Z,7.38
2022-10-17T00:47:55.095Z,10.10
2022-10-17T00:48:56.913Z,10.35
2022-10-17T00:49:58.772Z,10.78
2022-10-17T00:51:00.690Z,9.57
2022-10-17T00:52:02.827Z,8.68
2022-10-17T00:53:04.653Z,8.46
2022-10-17T00:54:06.498Z,11.21
2022-10-17T00:55:08.216Z,8.09
2022-10-17T00:56:10.070Z,9.07
2022-10-17T00:57:11.885Z,6.85
2022-10-17T00:58:13.605Z,12.74
2022-10-17T00:59:15.429Z,8.91
2022-10-17T01:00:17.507Z,9.55
2022-10-17T01:01:19.371Z,9.01
2022-10-17T01:02:21.178Z,8.67
2022-10-17T01:03:22.905Z,9.23
2022-10-17T01:04:24.734Z,8.65
2022-10-17T01:05:26.451Z,9.50
2022-10-17T01:06:28.339Z,9.58
2022-10-17T01:07:33.227Z,9.14
2022-10-17T01:08:33.786Z,9.68
2022-10-17T01:09:35.634Z,7.47
2022-10-17T01:10:37.432Z,10.29
2022-10-17T01:11:39.291Z,9.04
2022-10-17T01:12:41.108Z,8.29
2022-10-17T01:13:42.946Z,8.86
2022-10-17T01:14:44.781Z,7.86
2022-10-17T01:15:46.494Z,10.60
2022-10-17T01:16:48.450Z,8.55
2022-10-17T01:17:50.276Z,9.69
2022-10-17T01:18:52.112Z,9.37
2022-10-17T01:19:53.946Z,11.01
2022-10-17T01:20:55.883Z,9.68
2022-10-17T01:21:57.661Z,9.21
2022-10-17T01:22:59.489Z,10.21
2022-10-17T01:24:01.303Z,8.91
2022-10-17T01:25:03.123Z,9.11
2022-10-17T01:26:04.937Z,8.98
2022-10-17T01:27:06.691Z,9.36
2022-10-17T01:28:08.517Z,11.34
2022-10-17T01:29:10.235Z,9.81
2022-10-17T01:30:12.244Z,8.57
2022-10-17T01:31:13.965Z,10.15
2022-10-17T01:32:15.833Z,12.51
2022-10-17T01:33:17.660Z,10.56
2022-10-17T01:34:19.469Z,10.53
2022-10-17T01:35:21.293Z,9.39
2022-10-17T01:36:23.117Z,8.83
2022-10-17T01:37:24.912Z,9.36
2022-10-17T01:38:26.747Z,10.39
2022-10-17T01:39:30.084Z,9.28
2022-10-17T01:40:32.274Z,10.46
2022-10-17T01:41:34.095Z,10.32
2022-10-17T01:42:35.954Z,8.75
2022-10-17T01:43:37.761Z,8.54
2022-10-17T01:44:39.573Z,8.01
2022-10-17T01:45:41.401Z,9.91
2022-10-17T01:46:43.204Z,10.85
2022-10-17T01:47:45.043Z,10.88
2022-10-17T01:48:46.845Z,8.78
2022-10-17T01:49:48.540Z,9.14
2022-10-17T01:50:50.340Z,10.45
2022-10-17T01:51:52.136Z,9.73
2022-10-17T01:52:54.045Z,10.13
2022-10-17T01:53:55.831Z,9.53
2022-10-17T01:54:57.531Z,9.55
2022-10-17T01:55:59.323Z,11.65
2022-10-17T01:57:01.123Z,8.97
2022-10-17T01:58:02.868Z,12.15
2022-10-17T01:59:04.681Z,9.90
2022-10-17T02:00:06.472Z,8.46
2022-10-17T02:01:08.333Z,9.49
2022-10-17T02:02:10.084Z,9.49
2022-10-17T02:03:11.912Z,9.08
2022-10-17T02:04:13.609Z,10.74
2022-10-17T02:05:15.409Z,9.96
2022-10-17T02:06:17.101Z,10.53
2022-10-17T02:07:18.901Z,9.15
2022-10-17T02:08:20.777Z,12.25
2022-10-17T02:09:22.592Z,9.00
2022-10-17T02:10:24.484Z,10.71
2022-10-17T02:11:26.284Z,10.17
2022-10-17T02:12:27.991Z,10.63
2022-10-17T02:13:29.820Z,10.53
2022-10-17T02:14:31.632Z,11.87
2022-10-17T02:15:33.428Z,12.12
2022-10-17T02:16:35.219Z,11.81
2022-10-17T02:17:37.027Z,11.53
2022-10-17T02:18:38.864Z,10.93
2022-10-17T02:19:40.662Z,11.69
2022-10-17T02:20:42.457Z,13.61
2022-10-17T02:21:44.287Z,11.24
2022-10-17T02:22:45.981Z,11.59
2022-10-17T02:23:47.861Z,9.87
2022-10-17T02:24:49.708Z,11.69
2022-10-17T02:25:51.465Z,12.57
2022-10-17T02:26:53.262Z,12.33
2022-10-17T02:27:55.066Z,10.95
2022-10-17T02:28:56.942Z,13.79
2022-10-17T02:29:58.614Z,10.75
2022-10-17T02:31:00.394Z,12.13
2022-10-17T02:32:02.192Z,10.57
2022-10-17T02:33:03.991Z,9.27
2022-10-17T02:34:05.842Z,10.13
2022-10-17T02:35:07.649Z,13.24
2022-10-17T02:36:10.997Z,10.68
2022-10-17T02:37:12.798Z,9.96
2022-10-17T02:38:14.595Z,9.77
2022-10-17T02:39:16.499Z,11.51
2022-10-17T02:40:18.307Z,11.56
2022-10-17T02:41:20.033Z,10.45
2022-10-17T02:42:21.797Z,10.95
2022-10-17T02:43:23.597Z,13.75
2022-10-17T02:44:25.429Z,9.54
2022-10-17T02:45:27.244Z,10.58
2022-10-17T02:46:29.031Z,10.70
2022-10-17T02:47:30.828Z,14.34
2022-10-17T02:48:32.527Z,15.03
2022-10-17T02:49:34.365Z,15.51
2022-10-17T02:50:36.178Z,14.63
2022-10-17T02:51:37.977Z,19.22
2022-10-17T02:52:39.762Z,19.16
2022-10-17T02:53:41.471Z,23.82
2022-10-17T02:54:43.238Z,20.19
2022-10-17T02:55:45.044Z,16.33
2022-10-17T02:56:46.851Z,16.91
2022-10-17T02:57:48.659Z,16.03
2022-10-17T02:58:50.450Z,16.35
2022-10-17T02:59:52.305Z,17.28
2022-10-17T03:00:54.299Z,21.31
2022-10-17T03:01:56.135Z,20.41
2022-10-17T03:02:57.937Z,16.91
2022-10-17T03:03:59.745Z,17.11
2022-10-17T03:05:01.582Z,20.91
2022-10-17T03:06:03.404Z,16.13
2022-10-17T03:07:05.087Z,14.54
2022-10-17T03:08:06.694Z,13.19
2022-10-17T03:09:08.485Z,15.21
2022-10-17T03:10:10.370Z,12.83
2022-10-17T03:11:12.179Z,12.14
2022-10-17T03:12:14.021Z,10.18
2022-10-17T03:13:15.825Z,12.81
2022-10-17T03:14:17.514Z,12.96
2022-10-17T03:15:19.354Z,10.87
2022-10-17T03:16:21.140Z,11.53
2022-10-17T03:17:22.842Z,14.83
2022-10-17T03:18:24.660Z,12.88
2022-10-17T03:19:26.456Z,9.97
2022-10-17T03:20:28.276Z,11.29
2022-10-17T03:21:30.092Z,10.71
2022-10-17T03:22:32.157Z,10.86
2022-10-17T03:23:34.102Z,10.86
2022-10-17T03:24:35.803Z,10.87
2022-10-17T03:25:38.032Z,10.97
2022-10-17T03:26:39.903Z,10.13
2022-10-17T03:27:41.622Z,9.37
2022-10-17T03:28:43.490Z,10.41
2022-10-17T03:29:45.326Z,9.50
2022-10-17T03:30:47.265Z,10.20
2022-10-17T03:31:49.070Z,10.93
2022-10-17T03:32:50.882Z,8.52
2022-10-17T03:33:52.670Z,8.27
2022-10-17T03:34:54.392Z,9.67
2022-10-17T03:35:56.251Z,8.97
2022-10-17T03:36:58.041Z,10.80
2022-10-17T03:37:59.833Z,9.27
2022-10-17T03:39:01.669Z,10.43
2022-10-17T03:40:03.487Z,11.01
2022-10-17T03:41:05.342Z,11.91
2022-10-17T03:42:07.134Z,12.35
2022-10-17T03:43:08.933Z,11.13
2022-10-17T03:44:10.730Z,10.24
2022-10-17T03:45:12.532Z,15.20
2022-10-17T03:46:14.381Z,10.42
2022-10-17T03:47:16.160Z,13.35
2022-10-17T03:48:17.950Z,14.45
2022-10-17T03:49:19.756Z,14.51
2022-10-17T03:50:21.566Z,11.75
2022-10-17T03:51:23.383Z,10.26
2022-10-17T03:52:25.171Z,10.09
2022-10-17T03:53:26.867Z,12.19
2022-10-17T03:54:28.674Z,10.87
2022-10-17T03:55:30.480Z,10.29
2022-10-17T03:56:32.427Z,10.24
2022-10-17T03:57:34.217Z,11.36
2022-10-17T03:58:36.054Z,11.21
2022-10-17T03:59:37.901Z,10.71
2022-10-17T04:00:39.736Z,11.27
2022-10-17T04:01:41.745Z,12.45
2022-10-17T04:02:43.670Z,11.55
2022-10-17T04:03:45.489Z,12.01
2022-10-17T04:04:47.329Z,10.29
2022-10-17T04:05:49.060Z,9.93
2022-10-17T04:06:50.914Z,11.11
2022-10-17T04:07:52.737Z,10.74
2022-10-17T04:08:54.553Z,10.49
2022-10-17T04:09:56.263Z,11.45
2022-10-17T04:10:58.084Z,13.57
2022-10-17T04:11:59.979Z,10.07
2022-10-17T04:13:01.807Z,10.13
2022-10-17T04:14:03.653Z,10.15
2022-10-17T04:15:05.378Z,11.64
2022-10-17T04:16:07.899Z,10.85
2022-10-17T04:17:09.755Z,10.75
2022-10-17T04:18:11.610Z,10.63
2022-10-17T04:19:13.419Z,14.79
2022-10-17T04:20:15.358Z,13.39
2022-10-17T04:21:17.102Z,13.14
2022-10-17T04:22:18.939Z,11.80
2022-10-17T04:23:20.763Z,11.61
2022-10-17T04:24:22.597Z,12.15
2022-10-17T04:25:24.334Z,10.76
2022-10-17T04:26:26.137Z,13.26
2022-10-17T04:27:28.028Z,12.64
2022-10-17T04:28:29.945Z,15.83
2022-10-17T04:29:31.876Z,11.35
2022-10-17T04:30:33.695Z,14.19
2022-10-17T04:31:35.520Z,10.25
2022-10-17T04:32:37.586Z,12.14
2022-10-17T04:33:39.431Z,10.21
2022-10-17T04:34:41.245Z,10.95
2022-10-17T04:35:43.076Z,13.11
2022-10-17T04:36:44.936Z,11.49
2022-10-17T04:37:46.803Z,13.07
2022-10-17T04:38:48.620Z,10.09
2022-10-17T04:39:50.457Z,12.96
2022-10-17T04:40:52.293Z,10.69
2022-10-17T04:41:54.120Z,10.94
2022-10-17T04:42:56.100Z,11.89
2022-10-17T04:43:57.943Z,10.97
2022-10-17T04:44:59.765Z,12.56
2022-10-17T04:46:01.585Z,10.82
2022-10-17T04:47:03.295Z,12.83
2022-10-17T04:48:05.151Z,13.86
2022-10-17T04:49:06.992Z,10.61
2022-10-17T04:50:09.636Z,12.74
2022-10-17T04:51:12.334Z,12.69
2022-10-17T04:52:14.707Z,11.49
2022-10-17T04:53:16.891Z,10.57
2022-10-17T04:54:19.110Z,12.37
2022-10-17T04:55:21.127Z,12.25
2022-10-17T04:56:23.251Z,12.76
2022-10-17T04:57:25.421Z,11.27
2022-10-17T04:58:27.419Z,12.02
2022-10-17T04:59:29.473Z,10.74
2022-10-17T05:00:32.776Z,12.18
2022-10-17T05:01:35.134Z,10.99
2022-10-17T05:02:36.859Z,14.51
2022-10-17T05:03:39.024Z,12.83
2022-10-17T05:04:40.944Z,11.09
2022-10-17T05:05:42.869Z,11.04
2022-10-17T05:06:45.202Z,11.51
2022-10-17T05:07:47.027Z,11.50
2022-10-17T05:08:48.909Z,11.67
2022-10-17T05:09:50.740Z,15.97
2022-10-17T05:10:52.713Z,17.15
2022-10-17T05:11:54.822Z,14.52
2022-10-17T05:12:56.613Z,12.08
2022-10-17T05:13:58.560Z,15.01
2022-10-17T05:15:00.478Z,12.43
2022-10-17T05:16:02.757Z,16.37
2022-10-17T05:17:04.595Z,15.17
2022-10-17T05:18:06.418Z,11.75
2022-10-17T05:19:09.738Z,12.31
2022-10-17T05:20:11.924Z,15.44
2022-10-17T05:21:13.743Z,14.25
2022-10-17T05:22:15.566Z,15.30
2022-10-17T05:23:17.471Z,19.01
2022-10-17T05:24:19.711Z,15.09
2022-10-17T05:25:21.550Z,34.36
2022-10-17T05:26:24.473Z,47.97
2022-10-17T05:27:29.590Z,58.07
2022-10-17T05:28:32.316Z,58.11
2022-10-17T05:29:35.155Z,41.44
2022-10-17T05:30:38.151Z,37.40
2022-10-17T05:31:40.324Z,40.15
2022-10-17T05:32:42.407Z,47.36
2022-10-17T05:33:44.234Z,45.62
2022-10-17T05:34:46.089Z,31.59
2022-10-17T05:35:47.906Z,33.50
2022-10-17T05:36:49.736Z,27.75
2022-10-17T05:37:51.571Z,27.57
2022-10-17T05:38:53.280Z,18.08
2022-10-17T05:39:55.134Z,21.89
2022-10-17T05:40:57.160Z,11.68
2022-10-17T05:41:58.994Z,24.13
2022-10-17T05:43:00.817Z,18.09
2022-10-17T05:44:05.453Z,15.31
2022-10-17T05:45:06.783Z,15.42
2022-10-17T05:46:09.118Z,18.16
2022-10-17T05:47:10.946Z,17.10
2022-10-17T05:48:12.775Z,15.04
2022-10-17T05:49:19.752Z,13.22
2022-10-17T05:50:18.291Z,10.86
2022-10-17T05:51:20.140Z,11.57
2022-10-17T05:52:21.981Z,14.26
2022-10-17T05:53:24.724Z,12.29
2022-10-17T05:54:27.200Z,11.01
2022-10-17T05:55:29.653Z,13.61
2022-10-17T05:56:32.141Z,11.15
2022-10-17T05:57:34.973Z,14.16
2022-10-17T05:58:49.940Z,9.97
2022-10-17T05:59:41.525Z,9.90
2022-10-17T06:01:48.396Z,14.18
2022-10-17T06:02:50.249Z,13.75
2022-10-17T06:03:52.072Z,14.10
2022-10-17T06:04:53.913Z,11.75
2022-10-17T06:05:55.685Z,13.09
2022-10-17T06:06:57.501Z,14.54
2022-10-17T06:08:01.854Z,12.59
2022-10-17T06:09:02.951Z,12.35
2022-10-17T06:10:04.976Z,11.35
2022-10-17T06:11:09.895Z,12.74
2022-10-17T06:12:10.358Z,10.89
2022-10-17T06:13:12.172Z,10.87
2022-10-17T06:14:13.958Z,12.48
2022-10-17T06:15:15.757Z,10.21
2022-10-17T06:16:17.688Z,11.81
2022-10-17T06:17:19.478Z,10.49
2022-10-17T06:18:21.389Z,11.01
2022-10-17T06:19:23.189Z,10.01
2022-10-17T06:20:24.990Z,10.53
2022-10-17T06:21:26.723Z,9.92
2022-10-17T06:22:28.637Z,9.97
2022-10-17T06:23:30.630Z,9.34
2022-10-17T06:24:32.329Z,7.72
2022-10-17T06:25:34.029Z,9.31
2022-10-17T06:26:35.872Z,13.97
2022-10-17T06:27:37.689Z,12.59
2022-10-17T06:28:39.544Z,9.65
2022-10-17T06:29:41.319Z,12.68
2022-10-17T06:30:43.108Z,9.92
2022-10-17T06:31:45.059Z,12.03
2022-10-17T06:32:46.849Z,17.41
2022-10-17T06:33:48.659Z,10.91
2022-10-17T06:34:50.441Z,11.49
2022-10-17T06:41:56.383Z,9.24
2022-10-17T06:42:58.207Z,11.03
2022-10-17T06:44:00.072Z,10.41
2022-10-17T06:45:01.888Z,9.53
2022-10-17T06:46:03.749Z,11.79
2022-10-17T06:47:05.501Z,21.24
2022-10-17T06:48:07.318Z,22.08
2022-10-17T06:49:09.156Z,18.03
2022-10-17T06:50:11.179Z,12.15
2022-10-17T06:51:12.996Z,10.81
2022-10-17T06:52:14.720Z,11.95
2022-10-17T06:53:16.538Z,10.89
2022-10-17T06:54:18.391Z,13.39
2022-10-17T06:55:22.785Z,11.49
2022-10-17T06:56:23.860Z,11.52
2022-10-17T06:57:25.784Z,13.28
2022-10-17T06:58:27.623Z,11.24
2022-10-17T06:59:29.497Z,10.91
2022-10-17T07:00:31.358Z,9.21
2022-10-17T07:01:33.169Z,10.43
2022-10-17T07:02:35.043Z,12.04
2022-10-17T07:03:36.894Z,12.31
2022-10-17T07:04:38.732Z,9.45
2022-10-17T07:05:40.555Z,8.40
2022-10-17T07:06:42.367Z,9.47
2022-10-17T07:07:45.579Z,9.14
2022-10-17T07:08:47.884Z,10.11
2022-10-17T07:09:49.726Z,9.67
2022-10-17T07:10:51.543Z,11.65
2022-10-17T07:11:53.292Z,10.26
2022-10-17T07:12:55.126Z,9.60
2022-10-17T07:13:56.967Z,12.27
2022-10-17T07:14:58.795Z,10.29
2022-10-17T07:16:00.554Z,11.31
2022-10-17T07:17:02.395Z,11.49
2022-10-17T07:18:04.114Z,10.31
2022-10-17T07:19:05.984Z,9.55
2022-10-17T07:20:07.920Z,11.78
2022-10-17T07:21:09.667Z,11.11
2022-10-17T07:22:11.681Z,10.79
2022-10-17T07:23:13.544Z,9.74
2022-10-17T07:24:15.407Z,11.30
2022-10-17T07:25:17.226Z,7.63
2022-10-17T07:26:19.118Z,11.50
2022-10-17T07:27:20.960Z,8.69
2022-10-17T07:28:22.827Z,8.87
2022-10-17T07:29:24.643Z,10.10
2022-10-17T07:30:26.462Z,11.33
2022-10-17T07:31:28.317Z,10.89
2022-10-17T07:32:30.180Z,8.67
2022-10-17T07:33:31.998Z,11.82
2022-10-17T07:34:33.840Z,12.17
2022-10-17T07:35:35.665Z,12.65
2022-10-17T07:36:37.491Z,7.72
2022-10-17T07:37:39.315Z,7.99
2022-10-17T07:38:41.156Z,7.82
2022-10-17T07:39:42.901Z,10.20
2022-10-17T07:40:44.734Z,8.58
2022-10-17T07:41:46.630Z,7.41
2022-10-17T07:42:48.378Z,8.17
2022-10-17T07:43:50.227Z,8.08
2022-10-17T07:44:52.072Z,8.13
2022-10-17T07:45:53.905Z,9.24
2022-10-17T07:46:55.741Z,10.03
2022-10-17T07:47:57.601Z,11.57
2022-10-17T07:48:59.433Z,13.57
2022-10-17T07:50:01.289Z,12.99
2022-10-17T07:51:03.137Z,12.31
2022-10-17T07:52:04.970Z,9.77
2022-10-17T07:53:06.798Z,12.46
2022-10-17T07:54:08.631Z,9.29
2022-10-17T07:55:10.347Z,10.59
2022-10-17T07:56:12.853Z,9.44
2022-10-17T07:57:14.586Z,11.71
2022-10-17T07:58:16.408Z,9.01
2022-10-17T07:59:18.262Z,14.25
2022-10-17T08:00:20.090Z,10.87
2022-10-17T08:01:21.941Z,10.79
2022-10-17T08:02:23.821Z,8.94
2022-10-17T08:03:25.693Z,11.28
2022-10-17T08:04:27.430Z,7.84
2022-10-17T08:05:29.299Z,9.08
2022-10-17T08:06:31.154Z,9.48
2022-10-17T08:07:32.977Z,8.68
2022-10-17T08:08:34.826Z,12.56
2022-10-17T08:09:36.654Z,10.21
2022-10-17T08:10:38.464Z,9.41
2022-10-17T08:11:40.313Z,9.63
2022-10-17T08:12:42.190Z,11.77
2022-10-17T08:13:43.999Z,15.03
2022-10-17T08:14:45.821Z,15.38
2022-10-17T08:15:47.652Z,13.03
2022-10-17T08:16:49.512Z,12.56
2022-10-17T08:17:51.369Z,35.10
2022-10-17T08:18:53.204Z,13.09
2022-10-17T08:19:55.041Z,14.24
2022-10-17T08:20:59.478Z,17.58
2022-10-17T08:22:00.610Z,13.74
2022-10-17T08:23:02.457Z,18.49
2022-10-17T08:24:04.305Z,18.47
2022-10-17T08:25:06.088Z,16.94
2022-10-17T08:26:07.902Z,13.75
2022-10-17T08:27:09.744Z,13.49
2022-10-17T08:28:11.536Z,16.27
2022-10-17T08:29:13.398Z,16.77
2022-10-17T08:30:15.173Z,13.25
2022-10-17T08:31:16.963Z,12.57
2022-10-17T08:32:18.842Z,15.66
2022-10-17T08:33:20.650Z,12.71
2022-10-17T08:34:22.433Z,12.82
2022-10-17T08:35:24.123Z,13.01
2022-10-17T08:36:25.946Z,10.73
2022-10-17T08:37:28.045Z,14.46
2022-10-17T08:38:32.106Z,12.91
2022-10-17T08:39:33.669Z,13.31
2022-10-17T08:40:35.499Z,14.26
2022-10-17T08:41:37.283Z,12.65
2022-10-17T08:42:39.157Z,15.46
2022-10-17T08:43:40.979Z,12.63
2022-10-17T08:44:42.693Z,11.56
2022-10-17T08:45:44.486Z,9.79
2022-10-17T08:46:46.280Z,10.03
2022-10-17T08:47:48.121Z,11.10
2022-10-17T08:48:49.962Z,12.51
2022-10-17T08:49:51.675Z,11.10
2022-10-17T08:50:53.456Z,8.49
2022-10-17T08:51:55.161Z,10.96
2022-10-17T08:52:56.951Z,11.65
2022-10-17T08:53:58.675Z,11.81
2022-10-17T08:55:00.474Z,12.38
2022-10-17T08:56:02.291Z,10.66
2022-10-17T08:57:04.759Z,9.94
2022-10-17T08:58:06.665Z,8.69
2022-10-17T08:59:08.464Z,9.58
2022-10-17T09:00:10.605Z,10.33
2022-10-17T09:01:13.288Z,8.14
2022-10-17T09:02:15.286Z,11.27
2022-10-17T09:03:17.171Z,9.50
2022-10-17T09:04:19.131Z,10.97
2022-10-17T09:05:23.963Z,10.93
2022-10-17T09:06:24.543Z,6.76
2022-10-17T09:07:26.308Z,10.63
2022-10-17T09:08:28.137Z,9.51
2022-10-17T09:09:29.833Z,8.54
2022-10-17T09:10:31.537Z,9.30
2022-10-17T09:11:33.393Z,9.43
2022-10-17T09:12:35.168Z,8.30
2022-10-17T09:14:38.550Z,10.87
2022-10-17T09:15:40.319Z,13.71
2022-10-17T09:16:42.060Z,9.21
2022-10-17T09:17:43.870Z,10.56
2022-10-17T09:18:45.648Z,7.91
2022-10-17T09:19:47.349Z,10.02
2022-10-17T09:20:49.378Z,8.98
2022-10-17T09:21:51.185Z,6.87
2022-10-17T09:22:52.988Z,7.62
2022-10-17T09:24:03.767Z,6.78
2022-10-17T09:24:58.462Z,7.91
2022-10-17T09:26:00.265Z,6.37
2022-10-17T09:27:01.981Z,7.49
2022-10-17T09:28:03.783Z,7.81
2022-10-17T09:29:05.498Z,7.84
2022-10-17T09:30:13.063Z,8.42
2022-10-17T09:31:11.671Z,7.78
2022-10-17T09:32:13.358Z,9.79
2022-10-17T09:33:28.073Z,7.99
2022-10-17T09:34:18.872Z,9.45
2022-10-17T09:35:20.567Z,7.57
2022-10-17T09:36:22.276Z,7.46
2022-10-17T09:37:24.031Z,7.09
2022-10-17T09:38:25.910Z,8.35
2022-10-17T09:39:27.562Z,6.56
2022-10-17T09:40:29.239Z,9.72
2022-10-17T09:41:47.201Z,9.51
2022-10-17T09:42:34.563Z,8.92
2022-10-17T09:43:36.269Z,6.91
2022-10-17T09:44:38.023Z,8.09
2022-10-17T09:45:39.849Z,7.83
2022-10-17T09:46:41.662Z,10.60
2022-10-17T09:47:43.444Z,7.43
2022-10-17T09:48:46.923Z,4.57
2022-10-17T09:49:49.444Z,7.27
2022-10-17T09:51:02.525Z,4.74
2022-10-17T09:51:54.836Z,4.66
2022-10-17T09:52:56.641Z,4.93
2022-10-17T09:53:58.424Z,5.13
2022-10-17T09:55:00.227Z,10.57
2022-10-17T09:56:02.021Z,5.90
2022-10-17T09:57:03.823Z,7.53
2022-10-17T09:58:05.628Z,6.35
2022-10-17T09:59:10.362Z,6.79
2022-10-17T10:00:11.321Z,8.61
2022-10-17T10:01:13.145Z,6.22
2022-10-17T10:02:14.845Z,6.34
2022-10-17T10:03:16.553Z,7.11
2022-10-17T10:04:18.341Z,6.44
2022-10-17T10:05:20.102Z,5.61
2022-10-17T10:06:21.898Z,6.19
2022-10-17T10:07:28.997Z,7.81
2022-10-17T10:08:27.291Z,7.03
2022-10-17T10:09:29.024Z,5.41
2022-10-17T10:10:30.853Z,6.65
2022-10-17T10:11:32.532Z,5.43
2022-10-17T10:12:34.131Z,8.65
2022-10-17T10:13:35.935Z,5.51
2022-10-17T10:14:37.728Z,8.59
2022-10-17T10:15:39.473Z,7.09
2022-10-17T10:16:41.562Z,8.13
2022-10-17T10:17:43.368Z,7.52
2022-10-17T10:18:47.415Z,9.76
2022-10-17T10:19:48.668Z,6.55
2022-10-17T10:20:50.394Z,7.72
2022-10-17T10:21:52.079Z,5.14
2022-10-17T10:22:55.947Z,6.55
2022-10-17T10:23:57.477Z,5.75
2022-10-17T10:24:59.189Z,7.84
2022-10-17T10:26:01.035Z,5.72
2022-10-17T10:27:03.226Z,6.57
2022-10-17T10:28:04.908Z,5.87
2022-10-17T10:29:06.679Z,12.85
2022-10-17T10:30:09.000Z,8.10
2022-10-17T10:31:10.755Z,4.60
2022-10-17T10:32:12.550Z,5.01
2022-10-17T10:33:14.254Z,5.31
2022-10-17T10:34:16.056Z,6.92
2022-10-17T10:35:17.696Z,5.20
2022-10-17T10:36:20.397Z,6.76
2022-10-17T10:37:22.238Z,4.70
2022-10-17T10:38:24.061Z,8.02
2022-10-17T10:39:25.886Z,7.27
2022-10-17T10:40:27.721Z,4.92
2022-10-17T10:41:29.602Z,6.74
2022-10-17T10:42:31.412Z,6.53
2022-10-17T10:43:33.425Z,8.22
2022-10-17T10:44:35.351Z,7.60
2022-10-17T10:45:52.583Z,10.01
2022-10-17T10:46:41.031Z,9.69
2022-10-17T10:47:43.253Z,7.73
2022-10-17T10:48:45.080Z,6.99
2022-10-17T10:49:47.548Z,5.53
2022-10-17T10:50:50.457Z,7.02
2022-10-17T10:51:53.617Z,6.17
2022-10-17T10:52:58.636Z,5.89
2022-10-17T10:54:00.525Z,7.19
2022-10-17T10:55:02.841Z,9.09
2022-10-17T10:56:04.812Z,6.58
2022-10-17T10:57:06.783Z,9.30
2022-10-17T10:58:08.854Z,8.27
2022-10-17T10:59:10.692Z,8.65
2022-10-17T11:00:12.513Z,9.21
2022-10-17T11:01:14.389Z,7.37
2022-10-17T11:02:16.417Z,9.25
2022-10-17T11:03:18.294Z,7.01
2022-10-17T11:04:20.299Z,7.69
2022-10-17T11:05:22.162Z,5.92
2022-10-17T11:06:23.933Z,7.35
2022-10-17T11:07:25.797Z,7.46
2022-10-17T11:08:28.582Z,7.01
2022-10-17T11:09:33.107Z,6.18
2022-10-17T11:10:35.503Z,6.71
2022-10-17T11:11:37.834Z,11.83
2022-10-17T11:12:39.751Z,7.25
2022-10-17T11:13:41.926Z,8.01
2022-10-17T11:14:43.686Z,6.36
2022-10-17T11:15:45.495Z,6.99
2022-10-17T11:16:47.323Z,7.13
2022-10-17T11:17:49.201Z,12.11
2022-10-17T11:18:51.078Z,14.99
2022-10-17T11:19:52.879Z,15.60
2022-10-17T11:20:54.721Z,10.39
2022-10-17T11:21:56.519Z,13.84
2022-10-17T11:22:58.393Z,7.14
2022-10-17T11:24:00.229Z,9.84
2022-10-17T11:25:02.050Z,9.87
2022-10-17T11:26:03.934Z,8.09
2022-10-17T11:27:05.659Z,9.38
2022-10-17T11:28:07.562Z,8.59
2022-10-17T11:29:09.430Z,7.06
2022-10-17T11:30:11.402Z,6.88
2022-10-17T11:31:13.234Z,6.36
2022-10-17T11:32:15.088Z,5.83
2022-10-17T11:33:16.959Z,5.52
2022-10-17T11:34:19.391Z,4.09
2022-10-17T11:35:21.237Z,5.39
2022-10-17T11:36:23.045Z,5.09
2022-10-17T11:37:24.879Z,4.93
2022-10-17T11:38:26.759Z,8.99
2022-10-17T11:39:28.587Z,4.49
2022-10-17T11:40:30.417Z,8.34
2022-10-17T11:41:32.246Z,6.97
2022-10-17T11:42:34.088Z,7.83
2022-10-17T11:43:35.984Z,6.19
2022-10-17T11:44:37.787Z,7.97
2022-10-17T11:45:39.616Z,7.15
2022-10-17T11:46:41.452Z,6.66
2022-10-17T11:47:43.284Z,6.50
2022-10-17T11:48:45.170Z,5.01
2022-10-17T11:49:49.934Z,5.29
2022-10-17T11:52:02.921Z,3.56
2022-10-17T11:52:58.411Z,6.09
2022-10-17T11:54:00.667Z,7.95
2022-10-17T11:55:02.487Z,5.51
2022-10-17T11:56:04.359Z,6.89
2022-10-17T11:57:06.172Z,5.55
2022-10-17T11:58:08.003Z,4.93
2022-10-17T11:59:10.509Z,5.83
2022-10-17T12:00:13.046Z,8.68
2022-10-17T12:01:14.864Z,8.53
2022-10-17T12:02:16.802Z,7.65
2022-10-17T12:03:18.620Z,5.90
2022-10-17T12:04:20.547Z,5.32
2022-10-17T12:05:22.413Z,7.72
2022-10-17T12:06:29.176Z,6.93
2022-10-17T12:07:28.278Z,5.18
2022-10-17T12:08:31.328Z,4.41
2022-10-17T12:09:33.367Z,5.19
2022-10-17T12:10:35.208Z,4.98
2022-10-17T12:11:37.089Z,34.26
2022-10-17T12:12:38.907Z,18.13
2022-10-17T12:13:40.729Z,20.25
2022-10-17T12:14:42.608Z,23.13
2022-10-17T12:15:46.737Z,8.97
2022-10-17T12:16:48.476Z,12.54
2022-10-17T12:17:50.305Z,7.87
2022-10-17T12:18:52.138Z,7.89
2022-10-17T12:19:53.891Z,7.66
2022-10-17T12:20:55.831Z,6.01
2022-10-17T12:21:57.663Z,7.26
2022-10-17T12:22:59.486Z,7.41
2022-10-17T12:24:01.202Z,5.21
2022-10-17T12:25:03.146Z,6.24
2022-10-17T12:26:05.426Z,6.51
2022-10-17T12:27:07.529Z,5.54
2022-10-17T12:28:09.241Z,8.91
2022-10-17T12:29:11.059Z,6.53
2022-10-17T12:30:12.955Z,5.56
2022-10-17T12:31:14.995Z,9.46
2022-10-17T12:32:17.193Z,5.29
2022-10-17T12:33:19.570Z,4.64
2022-10-17T12:34:21.546Z,4.94
2022-10-17T12:35:23.424Z,6.53
2022-10-17T12:36:25.558Z,6.35
2022-10-17T12:37:27.803Z,5.34
2022-10-17T12:38:29.824Z,7.03
2022-10-17T12:39:31.646Z,7.28
2022-10-17T12:40:33.598Z,6.61
2022-10-17T12:41:35.428Z,8.80
2022-10-17T12:42:37.243Z,7.29
2022-10-17T12:43:43.947Z,7.99
2022-10-17T12:44:43.524Z,15.81
2022-10-17T12:45:48.549Z,17.43
2022-10-17T12:46:50.530Z,16.86
2022-10-17T12:47:52.358Z,14.01
2022-10-17T12:48:54.293Z,15.53
2022-10-17T12:49:56.805Z,14.75
2022-10-17T12:51:17.731Z,16.25
2022-10-17T12:52:02.838Z,11.80
2022-10-17T12:53:04.537Z,15.04
2022-10-17T12:54:06.534Z,10.39
2022-10-17T12:55:13.097Z,10.56
2022-10-17T12:56:13.341Z,11.35
2022-10-17T12:57:15.170Z,8.93
2022-10-17T12:58:18.799Z,8.55
2022-10-17T12:59:22.421Z,6.49
2022-10-17T13:00:26.082Z,9.11
2022-10-17T13:01:27.935Z,8.87
2022-10-17T13:02:29.672Z,9.33
2022-10-17T13:03:31.480Z,7.15
2022-10-17T13:04:33.270Z,5.97
2022-10-17T13:05:35.065Z,7.66
2022-10-17T13:06:36.819Z,8.20
2022-10-17T13:07:38.653Z,6.25
2022-10-17T13:08:40.346Z,9.43
2022-10-17T13:09:42.142Z,6.42
2022-10-17T13:10:44.113Z,6.49
2022-10-17T13:11:46.005Z,7.46
2022-10-17T13:12:47.967Z,7.21
2022-10-17T13:13:49.720Z,5.71
2022-10-17T13:14:51.405Z,7.61
2022-10-17T13:15:52.994Z,7.20
2022-10-17T13:16:54.740Z,9.71
2022-10-17T13:17:56.442Z,7.29
2022-10-17T13:18:58.132Z,10.35
2022-10-17T13:19:59.924Z,7.25
2022-10-17T13:21:01.630Z,8.42
2022-10-17T13:22:06.791Z,8.85
2022-10-17T13:23:07.068Z,9.76
2022-10-17T13:24:11.834Z,13.37
2022-10-17T13:25:13.559Z,11.23
2022-10-17T13:26:15.781Z,10.46
2022-10-17T13:27:17.646Z,10.60
2022-10-17T13:28:19.431Z,11.71
2022-10-17T13:29:21.115Z,8.15
2022-10-17T13:30:23.419Z,8.83
2022-10-17T13:31:26.519Z,8.49
2022-10-17T13:32:28.731Z,13.15
2022-10-17T13:33:30.688Z,9.99
2022-10-17T13:34:33.016Z,9.07
2022-10-17T13:36:38.428Z,10.83
2022-10-17T13:37:40.305Z,8.41
2022-10-17T13:38:42.836Z,11.77
2022-10-17T13:39:55.296Z,10.29
2022-10-17T13:40:50.359Z,10.16